西安 の空港の天気 - METARとTAF

西安咸陽国際空港 ( ZLXY / XIY ) - 中国 陝西省西安市
飛行場実況気象(Metar)
観測時間10/20 02:00 CST (10/19 18:00 UTC)
風向・風速北北東 2m/s
視程10km以上
天気現象
なし
気温10℃
湿度82%
気圧1025hPa
METARZLXY 191800Z 02002MPS CAVOK 10/07 Q1025 NOSIG
過去の天気等 Google飛行場航空写真 Wunderground天気予報

過去48時間のMETAR

飛行場予報(TAF)
発表時間: 10/19 23:16 CST (10/19 15:16 UTC)
予報対象時間: 20日2時 CST ~ 21日2時 CST
風向・風速東北東 4m/s
視程3000m
天気現象もや
全天を覆う雲 雲底高度 2130m
TAF ZLXY 191516Z 1918/2018 06004MPS 3000 BR OVC070 TX17/2007Z TN09/1922Z